sensor_id;sensor_type;location;lat;lon;timestamp;pressure;altitude;pressure_sealevel;temperature;humidity
41334;BME280;27078;46.428;6.256;2023-02-03T00:00:01;98151.06;;;1.85;100.00
41334;BME280;27078;46.428;6.256;2023-02-03T00:02:26;98149.09;;;1.93;100.00
41334;BME280;27078;46.428;6.256;2023-02-03T00:04:52;98144.06;;;1.87;100.00
41334;BME280;27078;46.428;6.256;2023-02-03T00:07:17;98150.78;;;1.94;100.00
41334;BME280;27078;46.428;6.256;2023-02-03T00:09:43;98142.00;;;1.98;100.00
41334;BME280;27078;46.428;6.256;2023-02-03T00:12:08;98141.88;;;2.03;100.00
41334;BME280;27078;46.428;6.256;2023-02-03T00:14:34;98140.94;;;2.06;100.00
41334;BME280;27078;46.428;6.256;2023-02-03T00:17:02;98143.59;;;2.04;100.00
41334;BME280;27078;46.428;6.256;2023-02-03T00:19:27;98147.72;;;2.11;100.00
41334;BME280;27078;46.428;6.256;2023-02-03T00:21:52;98139.91;;;2.11;100.00
41334;BME280;27078;46.428;6.256;2023-02-03T00:24:17;98152.19;;;2.08;100.00
41334;BME280;27078;46.428;6.256;2023-02-03T00:26:44;98148.81;;;2.04;100.00
41334;BME280;27078;46.428;6.256;2023-02-03T00:29:10;98150.59;;;2.02;100.00
41334;BME280;27078;46.428;6.256;2023-02-03T00:31:36;98151.41;;;2.04;100.00
41334;BME280;27078;46.428;6.256;2023-02-03T00:34:01;98154.97;;;2.01;100.00
41334;BME280;27078;46.428;6.256;2023-02-03T00:36:26;98154.16;;;1.99;100.00
41334;BME280;27078;46.428;6.256;2023-02-03T00:38:52;98157.56;;;2.01;100.00
41334;BME280;27078;46.428;6.256;2023-02-03T00:41:19;98150.63;;;2.00;100.00
41334;BME280;27078;46.428;6.256;2023-02-03T00:43:45;98149.06;;;1.95;100.00
41334;BME280;27078;46.428;6.256;2023-02-03T00:46:10;98141.06;;;2.01;100.00
41334;BME280;27078;46.428;6.256;2023-02-03T00:48:36;98147.19;;;2.00;100.00
41334;BME280;27078;46.428;6.256;2023-02-03T00:51:01;98142.84;;;1.99;100.00
41334;BME280;27078;46.428;6.256;2023-02-03T00:53:26;98149.34;;;2.15;100.00
41334;BME280;27078;46.428;6.256;2023-02-03T00:55:51;98141.53;;;2.15;100.00
41334;BME280;27078;46.428;6.256;2023-02-03T00:58:17;98148.19;;;2.26;100.00
41334;BME280;27078;46.428;6.256;2023-02-03T01:00:42;98135.09;;;2.29;100.00
41334;BME280;27078;46.428;6.256;2023-02-03T01:03:08;98140.31;;;2.29;100.00
41334;BME280;27078;46.428;6.256;2023-02-03T01:05:34;98152.59;;;2.23;100.00
41334;BME280;27078;46.428;6.256;2023-02-03T01:08:00;98154.13;;;2.31;100.00
41334;BME280;27078;46.428;6.256;2023-02-03T01:10:25;98161.94;;;2.31;100.00
41334;BME280;27078;46.428;6.256;2023-02-03T01:12:51;98167.22;;;2.29;100.00
41334;BME280;27078;46.428;6.256;2023-02-03T01:15:16;98151.50;;;2.31;100.00
41334;BME280;27078;46.428;6.256;2023-02-03T01:17:41;98157.66;;;2.30;100.00
41334;BME280;27078;46.428;6.256;2023-02-03T01:20:07;98151.66;;;2.26;100.00
41334;BME280;27078;46.428;6.256;2023-02-03T01:22:36;98157.66;;;2.30;100.00
41334;BME280;27078;46.428;6.256;2023-02-03T01:25:01;98161.94;;;2.31;100.00
41334;BME280;27078;46.428;6.256;2023-02-03T01:27:26;98164.75;;;2.24;100.00
41334;BME280;27078;46.428;6.256;2023-02-03T01:29:52;98159.41;;;2.29;100.00
41334;BME280;27078;46.428;6.256;2023-02-03T01:32:17;98171.50;;;2.32;100.00
41334;BME280;27078;46.428;6.256;2023-02-03T01:34:42;98172.38;;;2.31;100.00
41334;BME280;27078;46.428;6.256;2023-02-03T01:37:08;98174.91;;;2.34;100.00
41334;BME280;27078;46.428;6.256;2023-02-03T01:39:33;98174.75;;;2.40;100.00
41334;BME280;27078;46.428;6.256;2023-02-03T01:41:58;98170.22;;;2.45;100.00
41334;BME280;27078;46.428;6.256;2023-02-03T01:44:44;98160.53;;;2.50;100.00
41334;BME280;27078;46.428;6.256;2023-02-03T01:49:46;98169.25;;;2.49;100.00
41334;BME280;27078;46.428;6.256;2023-02-03T01:52:12;98171.03;;;2.47;100.00
41334;BME280;27078;46.428;6.256;2023-02-03T01:54:40;98170.22;;;2.45;100.00
41334;BME280;27078;46.428;6.256;2023-02-03T01:57:28;98179.59;;;2.52;100.00
41334;BME280;27078;46.428;6.256;2023-02-03T01:59:57;98165.66;;;2.53;100.00
41334;BME280;27078;46.428;6.256;2023-02-03T02:02:24;98162.97;;;2.56;100.00
41334;BME280;27078;46.428;6.256;2023-02-03T02:04:59;98169.00;;;2.58;100.00
41334;BME280;27078;46.428;6.256;2023-02-03T02:07:27;98165.47;;;2.59;100.00
41334;BME280;27078;46.428;6.256;2023-02-03T02:09:54;98157.56;;;2.62;100.00
41334;BME280;27078;46.428;6.256;2023-02-03T02:12:20;98153.03;;;2.69;100.00
41334;BME280;27078;46.428;6.256;2023-02-03T02:14:46;98156.28;;;2.76;100.00
41334;BME280;27078;46.428;6.256;2023-02-03T02:19:51;98148.22;;;2.83;100.00
41334;BME280;27078;46.428;6.256;2023-02-03T02:22:29;98139.56;;;2.81;100.00
41334;BME280;27078;46.428;6.256;2023-02-03T02:31:02;98145.19;;;2.97;100.00
41334;BME280;27078;46.428;6.256;2023-02-03T02:33:36;98152.06;;;3.00;100.00
41334;BME280;27078;46.428;6.256;2023-02-03T02:39:02;98155.63;;;2.97;100.00
41334;BME280;27078;46.428;6.256;2023-02-03T02:42:11;98150.53;;;2.94;100.00
41334;BME280;27078;46.428;6.256;2023-02-03T02:44:42;98150.78;;;2.85;100.00
41334;BME280;27078;46.428;6.256;2023-02-03T02:47:17;98155.03;;;2.88;100.00
41334;BME280;27078;46.428;6.256;2023-02-03T02:49:48;98156.50;;;2.96;100.00
41334;BME280;27078;46.428;6.256;2023-02-03T02:52:15;98160.16;;;2.92;100.00
41334;BME280;27078;46.428;6.256;2023-02-03T02:54:47;98158.00;;;3.05;100.00
41334;BME280;27078;46.428;6.256;2023-02-03T02:57:15;98154.25;;;3.14;100.00
41334;BME280;27078;46.428;6.256;2023-02-03T02:59:44;98146.59;;;3.08;100.00
41334;BME280;27078;46.428;6.256;2023-02-03T03:02:10;98147.75;;;2.99;100.00
41334;BME280;27078;46.428;6.256;2023-02-03T03:04:36;98143.38;;;2.99;100.00
41334;BME280;27078;46.428;6.256;2023-02-03T03:07:10;98142.38;;;3.03;100.00
41334;BME280;27078;46.428;6.256;2023-02-03T03:09:42;98135.41;;;3.04;100.00
41334;BME280;27078;46.428;6.256;2023-02-03T03:14:39;98128.31;;;2.79;100.00
41334;BME280;27078;46.428;6.256;2023-02-03T03:17:08;98138.53;;;2.87;100.00
41334;BME280;27078;46.428;6.256;2023-02-03T03:19:38;98143.69;;;2.90;100.00
41334;BME280;27078;46.428;6.256;2023-02-03T03:22:08;98141.88;;;2.92;100.00
41334;BME280;27078;46.428;6.256;2023-02-03T03:24:40;98143.75;;;2.87;100.00
41334;BME280;27078;46.428;6.256;2023-02-03T03:27:13;98141.97;;;2.89;100.00
41334;BME280;27078;46.428;6.256;2023-02-03T03:30:02;98140.66;;;3.02;100.00
41334;BME280;27078;46.428;6.256;2023-02-03T03:32:29;98143.47;;;2.96;100.00
41334;BME280;27078;46.428;6.256;2023-02-03T03:34:57;98146.22;;;2.92;100.00
41334;BME280;27078;46.428;6.256;2023-02-03T03:37:32;98152.38;;;2.91;100.00
41334;BME280;27078;46.428;6.256;2023-02-03T03:40:00;98136.84;;;2.86;100.00
41334;BME280;27078;46.428;6.256;2023-02-03T03:42:50;98134.66;;;2.72;100.00
41334;BME280;27078;46.428;6.256;2023-02-03T03:45:27;98137.47;;;2.64;100.00
41334;BME280;27078;46.428;6.256;2023-02-03T03:47:56;98146.00;;;2.71;100.00
41334;BME280;27078;46.428;6.256;2023-02-03T03:50:27;98142.81;;;2.61;100.00
41334;BME280;27078;46.428;6.256;2023-02-03T03:52:57;98150.66;;;2.60;100.00
41334;BME280;27078;46.428;6.256;2023-02-03T03:55:26;98151.53;;;2.60;100.00
41334;BME280;27078;46.428;6.256;2023-02-03T03:58:05;98162.97;;;2.56;100.00
41334;BME280;27078;46.428;6.256;2023-02-03T04:00:34;98160.38;;;2.56;100.00
41334;BME280;27078;46.428;6.256;2023-02-03T04:03:05;98145.63;;;2.54;100.00
41334;BME280;27078;46.428;6.256;2023-02-03T04:05:32;98152.56;;;2.55;100.00
41334;BME280;27078;46.428;6.256;2023-02-03T04:07:58;98137.41;;;2.68;100.00
41334;BME280;27078;46.428;6.256;2023-02-03T04:12:53;98134.09;;;2.62;100.00
41334;BME280;27078;46.428;6.256;2023-02-03T04:15:18;98126.38;;;2.58;100.00
41334;BME280;27078;46.428;6.256;2023-02-03T04:17:43;98120.63;;;2.47;100.00
41334;BME280;27078;46.428;6.256;2023-02-03T04:20:09;98130.13;;;2.49;100.00
41334;BME280;27078;46.428;6.256;2023-02-03T04:22:35;98127.34;;;2.55;100.00
41334;BME280;27078;46.428;6.256;2023-02-03T04:25:00;98122.13;;;2.55;100.00
41334;BME280;27078;46.428;6.256;2023-02-03T04:27:26;98119.94;;;2.41;100.00
41334;BME280;27078;46.428;6.256;2023-02-03T04:29:51;98126.25;;;2.33;100.00
41334;BME280;27078;46.428;6.256;2023-02-03T04:32:17;98127.00;;;2.38;100.00
41334;BME280;27078;46.428;6.256;2023-02-03T04:34:43;98116.56;;;2.38;100.00
41334;BME280;27078;46.428;6.256;2023-02-03T04:37:08;98122.66;;;2.37;100.00
41334;BME280;27078;46.428;6.256;2023-02-03T04:39:33;98119.34;;;2.32;100.00
41334;BME280;27078;46.428;6.256;2023-02-03T04:41:58;98107.56;;;2.18;100.00
41334;BME280;27078;46.428;6.256;2023-02-03T04:44:24;98099.91;;;2.12;100.00
41334;BME280;27078;46.428;6.256;2023-02-03T04:46:49;98104.50;;;2.04;100.00
41334;BME280;27078;46.428;6.256;2023-02-03T04:49:14;98107.31;;;1.96;100.00
41334;BME280;27078;46.428;6.256;2023-02-03T04:51:42;98106.97;;;1.77;100.00
41334;BME280;27078;46.428;6.256;2023-02-03T04:54:08;98104.06;;;1.57;100.00
41334;BME280;27078;46.428;6.256;2023-02-03T04:56:33;98091.22;;;1.49;100.00
41334;BME280;27078;46.428;6.256;2023-02-03T04:58:59;98100.72;;;1.50;100.00
41334;BME280;27078;46.428;6.256;2023-02-03T05:01:24;98085.84;;;1.55;100.00
41334;BME280;27078;46.428;6.256;2023-02-03T05:03:49;98081.59;;;1.53;100.00
41334;BME280;27078;46.428;6.256;2023-02-03T05:06:15;98085.88;;;1.54;100.00
41334;BME280;27078;46.428;6.256;2023-02-03T05:08:40;98075.47;;;1.54;100.00
41334;BME280;27078;46.428;6.256;2023-02-03T05:11:05;98085.91;;;1.52;100.00
41334;BME280;27078;46.428;6.256;2023-02-03T05:13:30;98087.94;;;1.42;100.00
41334;BME280;27078;46.428;6.256;2023-02-03T05:15:56;98085.47;;;1.36;100.00
41334;BME280;27078;46.428;6.256;2023-02-03T05:18:21;98089.06;;;1.32;100.00
41334;BME280;27078;46.428;6.256;2023-02-03T05:20:46;98091.31;;;1.12;100.00
41334;BME280;27078;46.428;6.256;2023-02-03T05:23:12;98090.59;;;1.05;100.00
41334;BME280;27078;46.428;6.256;2023-02-03T05:25:37;98094.25;;;0.98;100.00
41334;BME280;27078;46.428;6.256;2023-02-03T05:28:02;98091.53;;;1.02;100.00
41334;BME280;27078;46.428;6.256;2023-02-03T05:30:28;98088.22;;;0.97;100.00
41334;BME280;27078;46.428;6.256;2023-02-03T05:32:53;98091.56;;;1.01;100.00
41334;BME280;27078;46.428;6.256;2023-02-03T05:35:18;98092.41;;;1.01;100.00
41334;BME280;27078;46.428;6.256;2023-02-03T05:37:44;98092.53;;;0.97;100.00
41334;BME280;27078;46.428;6.256;2023-02-03T05:40:11;98096.88;;;0.98;100.00
41334;BME280;27078;46.428;6.256;2023-02-03T05:42:55;98093.31;;;1.00;100.00
41334;BME280;27078;46.428;6.256;2023-02-03T05:45:20;98088.03;;;1.04;100.00
41334;BME280;27078;46.428;6.256;2023-02-03T05:47:45;98086.47;;;0.98;100.00
41334;BME280;27078;46.428;6.256;2023-02-03T05:50:11;98088.13;;;1.00;100.00
41334;BME280;27078;46.428;6.256;2023-02-03T05:52:36;98099.47;;;0.98;100.00
41334;BME280;27078;46.428;6.256;2023-02-03T05:55:02;98094.38;;;0.93;100.00
41334;BME280;27078;46.428;6.256;2023-02-03T05:57:27;98091.09;;;0.85;100.00
41334;BME280;27078;46.428;6.256;2023-02-03T05:59:52;98097.03;;;0.90;100.00
41334;BME280;27078;46.428;6.256;2023-02-03T06:02:17;98102.25;;;0.90;100.00
41334;BME280;27078;46.428;6.256;2023-02-03T06:04:43;98103.16;;;0.89;100.00
41334;BME280;27078;46.428;6.256;2023-02-03T06:07:08;98108.44;;;0.85;100.00
41334;BME280;27078;46.428;6.256;2023-02-03T06:09:34;98107.66;;;0.81;100.00
41334;BME280;27078;46.428;6.256;2023-02-03T06:11:59;98099.91;;;0.78;100.00
41334;BME280;27078;46.428;6.256;2023-02-03T06:14:25;98100.97;;;0.71;100.00
41334;BME280;27078;46.428;6.256;2023-02-03T06:16:52;98116.03;;;0.55;100.00
41334;BME280;27078;46.428;6.256;2023-02-03T06:19:17;98121.63;;;0.38;100.00
41334;BME280;27078;46.428;6.256;2023-02-03T06:21:43;98109.56;;;0.34;100.00
41334;BME280;27078;46.428;6.256;2023-02-03T06:24:09;98124.56;;;0.23;100.00
41334;BME280;27078;46.428;6.256;2023-02-03T06:26:34;98124.75;;;0.13;100.00
41334;BME280;27078;46.428;6.256;2023-02-03T06:28:59;98132.59;;;0.10;100.00
41334;BME280;27078;46.428;6.256;2023-02-03T06:31:25;98138.63;;;0.12;100.00
41334;BME280;27078;46.428;6.256;2023-02-03T06:33:50;98148.13;;;0.13;100.00
41334;BME280;27078;46.428;6.256;2023-02-03T06:36:15;98153.34;;;0.13;100.00
41334;BME280;27078;46.428;6.256;2023-02-03T06:38:41;98156.75;;;0.15;100.00
41334;BME280;27078;46.428;6.256;2023-02-03T06:41:06;98165.16;;;0.28;100.00
41334;BME280;27078;46.428;6.256;2023-02-03T06:43:31;98171.84;;;0.40;100.00
41334;BME280;27078;46.428;6.256;2023-02-03T06:45:57;98169.94;;;0.48;100.00
41334;BME280;27078;46.428;6.256;2023-02-03T06:48:22;98168.22;;;0.49;100.00
41334;BME280;27078;46.428;6.256;2023-02-03T06:50:48;98162.03;;;0.53;100.00
41334;BME280;27078;46.428;6.256;2023-02-03T06:53:13;98152.53;;;0.52;100.00
41334;BME280;27078;46.428;6.256;2023-02-03T06:55:38;98141.47;;;0.42;100.00
41334;BME280;27078;46.428;6.256;2023-02-03T06:58:03;98137.91;;;0.46;100.00
41334;BME280;27078;46.428;6.256;2023-02-03T07:00:29;98138.78;;;0.47;100.00
41334;BME280;27078;46.428;6.256;2023-02-03T07:02:55;98139.81;;;0.38;100.00
41334;BME280;27078;46.428;6.256;2023-02-03T07:05:22;98147.00;;;0.27;100.00
41334;BME280;27078;46.428;6.256;2023-02-03T07:07:49;98150.28;;;0.36;100.00
41334;BME280;27078;46.428;6.256;2023-02-03T07:10:14;98155.59;;;0.30;100.00
41334;BME280;27078;46.428;6.256;2023-02-03T07:12:40;98160.84;;;0.27;100.00
41334;BME280;27078;46.428;6.256;2023-02-03T07:15:05;98159.03;;;0.31;100.00
41334;BME280;27078;46.428;6.256;2023-02-03T07:17:31;98151.00;;;0.43;100.00
41334;BME280;27078;46.428;6.256;2023-02-03T07:19:56;98166.38;;;0.54;100.00
41334;BME280;27078;46.428;6.256;2023-02-03T07:22:22;98150.63;;;0.60;100.00
41334;BME280;27078;46.428;6.256;2023-02-03T07:24:47;98149.78;;;0.59;100.00
41334;BME280;27078;46.428;6.256;2023-02-03T07:27:12;98153.13;;;0.65;100.00
41334;BME280;27078;46.428;6.256;2023-02-03T07:29:37;98148.75;;;0.67;100.00
41334;BME280;27078;46.428;6.256;2023-02-03T07:32:03;98145.88;;;0.79;100.00
41334;BME280;27078;46.428;6.256;2023-02-03T07:34:28;98142.09;;;0.92;100.00
41334;BME280;27078;46.428;6.256;2023-02-03T07:36:55;98146.34;;;0.96;100.00
41334;BME280;27078;46.428;6.256;2023-02-03T07:39:21;98142.03;;;0.95;100.00
41334;BME280;27078;46.428;6.256;2023-02-03T07:41:46;98140.41;;;0.91;100.00
41334;BME280;27078;46.428;6.256;2023-02-03T07:44:12;98134.97;;;1.00;100.00
41334;BME280;27078;46.428;6.256;2023-02-03T07:46:38;98134.97;;;1.00;100.00
41334;BME280;27078;46.428;6.256;2023-02-03T07:49:09;98141.28;;;1.26;100.00
41334;BME280;27078;46.428;6.256;2023-02-03T07:51:35;98141.72;;;1.43;100.00
41334;BME280;27078;46.428;6.256;2023-02-03T07:54:00;98150.94;;;1.57;100.00
41334;BME280;27078;46.428;6.256;2023-02-03T07:56:25;98156.97;;;1.59;100.00
41334;BME280;27078;46.428;6.256;2023-02-03T07:58:51;98158.34;;;1.72;100.00
41334;BME280;27078;46.428;6.256;2023-02-03T08:01:17;98167.63;;;1.82;100.00
41334;BME280;27078;46.428;6.256;2023-02-03T08:03:43;98172.69;;;1.89;100.00
41334;BME280;27078;46.428;6.256;2023-02-03T08:06:08;98170.63;;;2.00;100.00
41334;BME280;27078;46.428;6.256;2023-02-03T08:08:34;98173.94;;;2.07;100.00
41334;BME280;27078;46.428;6.256;2023-02-03T08:11:00;98180.19;;;2.31;100.00
41334;BME280;27078;46.428;6.256;2023-02-03T08:13:25;98181.66;;;2.41;100.00
41334;BME280;27078;46.428;6.256;2023-02-03T08:15:51;98180.50;;;2.51;100.00
41334;BME280;27078;46.428;6.256;2023-02-03T08:18:16;98183.56;;;2.65;100.00
41334;BME280;27078;46.428;6.256;2023-02-03T08:20:41;98170.03;;;2.81;100.00
41334;BME280;27078;46.428;6.256;2023-02-03T08:23:07;98180.97;;;2.94;100.00
41334;BME280;27078;46.428;6.256;2023-02-03T08:25:32;98174.38;;;3.10;100.00
41334;BME280;27078;46.428;6.256;2023-02-03T08:27:58;98173.00;;;3.26;100.00
41334;BME280;27078;46.428;6.256;2023-02-03T08:30:23;98184.66;;;3.43;100.00
41334;BME280;27078;46.428;6.256;2023-02-03T08:32:49;98193.00;;;3.54;100.00
41334;BME280;27078;46.428;6.256;2023-02-03T08:35:15;98191.47;;;3.74;100.00
41334;BME280;27078;46.428;6.256;2023-02-03T08:37:40;98199.31;;;3.99;100.00
41334;BME280;27078;46.428;6.256;2023-02-03T08:40:06;98197.31;;;4.07;100.00
41334;BME280;27078;46.428;6.256;2023-02-03T08:42:32;98191.53;;;4.22;100.00
41334;BME280;27078;46.428;6.256;2023-02-03T08:44:57;98195.09;;;4.45;100.00
41334;BME280;27078;46.428;6.256;2023-02-03T08:47:23;98195.97;;;4.44;100.00
41334;BME280;27078;46.428;6.256;2023-02-03T08:49:49;98201.03;;;4.48;100.00
41334;BME280;27078;46.428;6.256;2023-02-03T08:52:14;98198.94;;;4.58;100.00
41334;BME280;27078;46.428;6.256;2023-02-03T08:54:40;98197.47;;;4.75;100.00
41334;BME280;27078;46.428;6.256;2023-02-03T08:57:06;98194.25;;;4.90;100.00
41334;BME280;27078;46.428;6.256;2023-02-03T08:59:31;98189.69;;;4.95;100.00
41334;BME280;27078;46.428;6.256;2023-02-03T09:02:03;98190.38;;;5.00;100.00
41334;BME280;27078;46.428;6.256;2023-02-03T09:04:30;98184.22;;;5.01;100.00
41334;BME280;27078;46.428;6.256;2023-02-03T09:06:57;98182.94;;;5.12;100.00
41334;BME280;27078;46.428;6.256;2023-02-03T09:09:24;98194.22;;;5.14;100.00
41334;BME280;27078;46.428;6.256;2023-02-03T09:11:51;98204.47;;;5.20;100.00
41334;BME280;27078;46.428;6.256;2023-02-03T09:14:19;98219.34;;;5.19;100.00
41334;BME280;27078;46.428;6.256;2023-02-03T09:16:45;98217.88;;;5.34;100.00
41334;BME280;27078;46.428;6.256;2023-02-03T09:19:11;98210.31;;;5.48;100.00
41334;BME280;27078;46.428;6.256;2023-02-03T09:21:37;98214.94;;;5.64;100.00
41334;BME280;27078;46.428;6.256;2023-02-03T09:24:03;98205.56;;;5.79;100.00
41334;BME280;27078;46.428;6.256;2023-02-03T09:26:29;98204.47;;;5.84;100.00
41334;BME280;27078;46.428;6.256;2023-02-03T09:28:55;98214.03;;;5.85;100.00
41334;BME280;27078;46.428;6.256;2023-02-03T09:31:20;98196.47;;;5.87;100.00
41334;BME280;27078;46.428;6.256;2023-02-03T09:33:46;98196.19;;;5.95;100.00
41334;BME280;27078;46.428;6.256;2023-02-03T09:36:12;98206.69;;;5.94;100.00
41334;BME280;27078;46.428;6.256;2023-02-03T09:38:38;98199.00;;;6.11;100.00
41334;BME280;27078;46.428;6.256;2023-02-03T09:46:33;98196.31;;;6.33;100.00
41334;BME280;27078;46.428;6.256;2023-02-03T09:49:36;98183.25;;;6.31;100.00
41334;BME280;27078;46.428;6.256;2023-02-03T09:52:21;98186.31;;;6.60;100.00
41334;BME280;27078;46.428;6.256;2023-02-03T09:57:27;98191.41;;;6.84;100.00
41334;BME280;27078;46.428;6.256;2023-02-03T09:59:56;98191.81;;;6.93;100.00
41334;BME280;27078;46.428;6.256;2023-02-03T10:10:50;98200.72;;;7.27;100.00
41334;BME280;27078;46.428;6.256;2023-02-03T10:13:42;98196.03;;;7.34;100.00
41334;BME280;27078;46.428;6.256;2023-02-03T10:16:19;98202.84;;;7.38;100.00
41334;BME280;27078;46.428;6.256;2023-02-03T10:18:53;98200.56;;;7.49;100.00
41334;BME280;27078;46.428;6.256;2023-02-03T10:21:39;98191.50;;;7.55;100.00
41334;BME280;27078;46.428;6.256;2023-02-03T10:24:16;98200.22;;;7.55;100.00
41334;BME280;27078;46.428;6.256;2023-02-03T10:26:43;98191.59;;;7.53;100.00
41334;BME280;27078;46.428;6.256;2023-02-03T10:29:38;98187.19;;;7.54;100.00
41334;BME280;27078;46.428;6.256;2023-02-03T10:32:08;98196.22;;;7.66;100.00
41334;BME280;27078;46.428;6.256;2023-02-03T10:34:35;98196.69;;;7.74;100.00
41334;BME280;27078;46.428;6.256;2023-02-03T10:37:24;98200.81;;;7.80;100.00
41334;BME280;27078;46.428;6.256;2023-02-03T10:39:51;98190.22;;;7.81;100.00
41334;BME280;27078;46.428;6.256;2023-02-03T10:42:18;98187.50;;;7.83;100.00
41334;BME280;27078;46.428;6.256;2023-02-03T10:49:40;98183.03;;;8.02;100.00
41334;BME280;27078;46.428;6.256;2023-02-03T10:52:24;98178.63;;;8.03;100.00
41334;BME280;27078;46.428;6.256;2023-02-03T10:54:49;98181.31;;;8.01;100.00
41334;BME280;27078;46.428;6.256;2023-02-03T10:57:15;98173.81;;;8.11;100.00
41334;BME280;27078;46.428;6.256;2023-02-03T10:59:43;98171.25;;;8.09;100.00
41334;BME280;27078;46.428;6.256;2023-02-03T11:02:24;98170.16;;;8.13;100.00
41334;BME280;27078;46.428;6.256;2023-02-03T11:05:19;98159.06;;;8.24;100.00
41334;BME280;27078;46.428;6.256;2023-02-03T11:07:47;98165.50;;;8.36;100.00
41334;BME280;27078;46.428;6.256;2023-02-03T11:10:34;98165.69;;;8.31;100.00
41334;BME280;27078;46.428;6.256;2023-02-03T11:13:20;98160.66;;;8.44;100.00
41334;BME280;27078;46.428;6.256;2023-02-03T11:18:51;98153.63;;;8.27;100.00
41334;BME280;27078;46.428;6.256;2023-02-03T11:21:41;98156.56;;;8.39;100.00
41334;BME280;27078;46.428;6.256;2023-02-03T11:24:31;98149.75;;;8.34;100.00
41334;BME280;27078;46.428;6.256;2023-02-03T11:27:01;98149.03;;;8.48;100.00
41334;BME280;27078;46.428;6.256;2023-02-03T11:29:31;98137.78;;;8.62;100.00
41334;BME280;27078;46.428;6.256;2023-02-03T11:32:05;98133.03;;;8.53;100.00
41334;BME280;27078;46.428;6.256;2023-02-03T11:34:39;98140.78;;;8.39;98.07
41334;BME280;27078;46.428;6.256;2023-02-03T11:37:36;98138.38;;;8.34;95.98
41334;BME280;27078;46.428;6.256;2023-02-03T11:42:38;98136.75;;;8.49;94.11
41334;BME280;27078;46.428;6.256;2023-02-03T11:50:59;98131.09;;;8.72;87.01
41334;BME280;27078;46.428;6.256;2023-02-03T12:02:31;98107.09;;;9.09;82.54
41334;BME280;27078;46.428;6.256;2023-02-03T12:05:14;98107.25;;;9.22;89.03
41334;BME280;27078;46.428;6.256;2023-02-03T12:07:53;98094.84;;;9.24;78.77
41334;BME280;27078;46.428;6.256;2023-02-03T12:16:18;98089.84;;;9.03;83.75
41334;BME280;27078;46.428;6.256;2023-02-03T12:21:42;98091.25;;;9.25;80.88
41334;BME280;27078;46.428;6.256;2023-02-03T12:27:28;98090.72;;;9.34;84.63
41334;BME280;27078;46.428;6.256;2023-02-03T12:30:04;98098.69;;;9.48;80.33
41334;BME280;27078;46.428;6.256;2023-02-03T12:32:38;98097.47;;;9.54;79.96
41334;BME280;27078;46.428;6.256;2023-02-03T12:38:04;98070.81;;;9.44;78.76
41334;BME280;27078;46.428;6.256;2023-02-03T12:40:37;98064.41;;;9.48;77.81
41334;BME280;27078;46.428;6.256;2023-02-03T12:43:32;98059.38;;;9.44;76.66
41334;BME280;27078;46.428;6.256;2023-02-03T12:46:11;98057.88;;;9.40;76.16
41334;BME280;27078;46.428;6.256;2023-02-03T12:51:40;98048.53;;;9.34;80.10
41334;BME280;27078;46.428;6.256;2023-02-03T12:56:52;98034.84;;;9.57;78.11
41334;BME280;27078;46.428;6.256;2023-02-03T12:59:22;98029.94;;;9.51;75.09
41334;BME280;27078;46.428;6.256;2023-02-03T13:01:58;98027.84;;;9.56;81.26
41334;BME280;27078;46.428;6.256;2023-02-03T13:04:42;98022.69;;;9.69;75.25
41334;BME280;27078;46.428;6.256;2023-02-03T13:07:20;98017.53;;;9.82;75.45
41334;BME280;27078;46.428;6.256;2023-02-03T13:09:50;98015.47;;;9.87;77.48
41334;BME280;27078;46.428;6.256;2023-02-03T13:15:45;98015.09;;;9.93;79.14
41334;BME280;27078;46.428;6.256;2023-02-03T13:20:46;98021.28;;;9.92;72.98
41334;BME280;27078;46.428;6.256;2023-02-03T13:23:13;98017.72;;;9.79;75.29
41334;BME280;27078;46.428;6.256;2023-02-03T13:28:42;98012.44;;;9.79;73.79
41334;BME280;27078;46.428;6.256;2023-02-03T13:44:55;97990.00;;;10.01;72.46
41334;BME280;27078;46.428;6.256;2023-02-03T13:47:29;97991.97;;;10.11;73.01
41334;BME280;27078;46.428;6.256;2023-02-03T13:50:04;97985.47;;;10.31;72.14
41334;BME280;27078;46.428;6.256;2023-02-03T13:52:37;97990.53;;;10.49;70.01
41334;BME280;27078;46.428;6.256;2023-02-03T13:55:05;97987.97;;;10.47;69.83
41334;BME280;27078;46.428;6.256;2023-02-03T13:57:36;97983.00;;;10.43;66.78
41334;BME280;27078;46.428;6.256;2023-02-03T14:03:16;97989.25;;;10.13;68.71
41334;BME280;27078;46.428;6.256;2023-02-03T14:05:44;97987.56;;;9.97;68.19
41334;BME280;27078;46.428;6.256;2023-02-03T14:19:10;97985.91;;;10.24;68.81
41334;BME280;27078;46.428;6.256;2023-02-03T14:21:41;97990.53;;;10.20;69.58
41334;BME280;27078;46.428;6.256;2023-02-03T14:24:09;97988.00;;;10.18;67.90
41334;BME280;27078;46.428;6.256;2023-02-03T14:26:42;98006.31;;;10.07;69.83
41334;BME280;27078;46.428;6.256;2023-02-03T14:29:22;98013.50;;;9.91;69.43
41334;BME280;27078;46.428;6.256;2023-02-03T14:31:55;98015.25;;;9.90;70.26
41334;BME280;27078;46.428;6.256;2023-02-03T14:34:32;98009.50;;;9.84;76.84
41334;BME280;27078;46.428;6.256;2023-02-03T14:37:16;98002.72;;;9.79;72.15
41334;BME280;27078;46.428;6.256;2023-02-03T14:53:27;98011.25;;;9.10;73.43
41334;BME280;27078;46.428;6.256;2023-02-03T14:56:11;98012.28;;;9.07;74.60
41334;BME280;27078;46.428;6.256;2023-02-03T14:58:44;98002.78;;;9.05;74.08
41334;BME280;27078;46.428;6.256;2023-02-03T15:06:41;98018.69;;;9.03;71.71
41334;BME280;27078;46.428;6.256;2023-02-03T15:09:40;98016.44;;;9.11;72.43
41334;BME280;27078;46.428;6.256;2023-02-03T15:12:17;97994.59;;;9.09;72.79
41334;BME280;27078;46.428;6.256;2023-02-03T15:14:43;97996.47;;;9.07;74.13
41334;BME280;27078;46.428;6.256;2023-02-03T15:17:20;97988.94;;;9.01;74.05
41334;BME280;27078;46.428;6.256;2023-02-03T15:19:47;97978.09;;;8.91;75.10
41334;BME280;27078;46.428;6.256;2023-02-03T15:22:36;97965.06;;;8.88;74.64
41334;BME280;27078;46.428;6.256;2023-02-03T15:25:02;97963.13;;;8.92;80.03
41334;BME280;27078;46.428;6.256;2023-02-03T15:27:31;97963.25;;;9.05;74.96
41334;BME280;27078;46.428;6.256;2023-02-03T15:29:56;97962.31;;;9.06;75.99